sensor_id;sensor_type;location;lat;lon;timestamp;temperature;humidity
8313;DHT22;4194;43.408;24.626;2023-04-06T00:01:02;3.70;99.90
8313;DHT22;4194;43.408;24.626;2023-04-06T00:03:28;3.70;99.90
8313;DHT22;4194;43.408;24.626;2023-04-06T00:05:54;3.50;99.90
8313;DHT22;4194;43.408;24.626;2023-04-06T00:08:19;3.80;99.90
8313;DHT22;4194;43.408;24.626;2023-04-06T00:10:46;4.00;99.90
8313;DHT22;4194;43.408;24.626;2023-04-06T00:13:12;3.90;99.90
8313;DHT22;4194;43.408;24.626;2023-04-06T00:15:38;3.90;99.90
8313;DHT22;4194;43.408;24.626;2023-04-06T00:18:04;4.00;99.90
8313;DHT22;4194;43.408;24.626;2023-04-06T00:20:30;3.70;99.90
8313;DHT22;4194;43.408;24.626;2023-04-06T00:22:55;4.00;99.90
8313;DHT22;4194;43.408;24.626;2023-04-06T00:25:21;4.10;99.90
8313;DHT22;4194;43.408;24.626;2023-04-06T00:27:47;4.10;99.90
8313;DHT22;4194;43.408;24.626;2023-04-06T00:30:13;4.00;99.90
8313;DHT22;4194;43.408;24.626;2023-04-06T00:32:38;4.00;99.90
8313;DHT22;4194;43.408;24.626;2023-04-06T00:35:05;4.10;99.90
8313;DHT22;4194;43.408;24.626;2023-04-06T00:37:31;4.40;99.90
8313;DHT22;4194;43.408;24.626;2023-04-06T00:39:57;4.00;99.90
8313;DHT22;4194;43.408;24.626;2023-04-06T00:42:23;6.10;99.90
8313;DHT22;4194;43.408;24.626;2023-04-06T00:47:18;5.40;99.90
8313;DHT22;4194;43.408;24.626;2023-04-06T00:52:10;4.10;99.90
8313;DHT22;4194;43.408;24.626;2023-04-06T00:54:36;4.40;99.90
8313;DHT22;4194;43.408;24.626;2023-04-06T00:57:02;4.20;99.90
8313;DHT22;4194;43.408;24.626;2023-04-06T00:59:28;3.00;99.90
8313;DHT22;4194;43.408;24.626;2023-04-06T01:01:54;3.30;99.90
8313;DHT22;4194;43.408;24.626;2023-04-06T01:04:20;3.10;99.90
8313;DHT22;4194;43.408;24.626;2023-04-06T01:06:48;4.20;99.90
8313;DHT22;4194;43.408;24.626;2023-04-06T01:09:15;4.20;99.90
8313;DHT22;4194;43.408;24.626;2023-04-06T01:11:40;4.30;99.90
8313;DHT22;4194;43.408;24.626;2023-04-06T01:14:06;3.50;99.90
8313;DHT22;4194;43.408;24.626;2023-04-06T01:16:33;4.20;99.90
8313;DHT22;4194;43.408;24.626;2023-04-06T01:18:59;3.60;99.90
8313;DHT22;4194;43.408;24.626;2023-04-06T01:21:24;4.20;99.90
8313;DHT22;4194;43.408;24.626;2023-04-06T01:23:51;4.60;99.90
8313;DHT22;4194;43.408;24.626;2023-04-06T01:26:16;4.50;99.90
8313;DHT22;4194;43.408;24.626;2023-04-06T01:28:42;4.50;99.90
8313;DHT22;4194;43.408;24.626;2023-04-06T01:31:10;4.20;99.90
8313;DHT22;4194;43.408;24.626;2023-04-06T01:33:36;3.70;99.90
8313;DHT22;4194;43.408;24.626;2023-04-06T01:36:03;4.20;99.90
8313;DHT22;4194;43.408;24.626;2023-04-06T01:38:28;5.40;99.90
8313;DHT22;4194;43.408;24.626;2023-04-06T01:40:54;3.20;99.90
8313;DHT22;4194;43.408;24.626;2023-04-06T01:43:21;5.30;99.90
8313;DHT22;4194;43.408;24.626;2023-04-06T01:45:46;3.80;99.90
8313;DHT22;4194;43.408;24.626;2023-04-06T01:48:12;3.90;99.90
8313;DHT22;4194;43.408;24.626;2023-04-06T01:50:38;4.20;99.90
8313;DHT22;4194;43.408;24.626;2023-04-06T01:53:03;4.10;99.90
8313;DHT22;4194;43.408;24.626;2023-04-06T01:55:29;4.30;99.90
8313;DHT22;4194;43.408;24.626;2023-04-06T01:57:55;4.20;99.90
8313;DHT22;4194;43.408;24.626;2023-04-06T02:00:21;4.00;99.90
8313;DHT22;4194;43.408;24.626;2023-04-06T02:02:46;4.60;99.90
8313;DHT22;4194;43.408;24.626;2023-04-06T02:05:12;3.20;99.90
8313;DHT22;4194;43.408;24.626;2023-04-06T02:07:38;4.20;99.90
8313;DHT22;4194;43.408;24.626;2023-04-06T02:10:04;3.20;99.90
8313;DHT22;4194;43.408;24.626;2023-04-06T02:12:30;3.10;99.90
8313;DHT22;4194;43.408;24.626;2023-04-06T02:14:55;4.10;99.90
8313;DHT22;4194;43.408;24.626;2023-04-06T02:17:21;4.70;99.90
8313;DHT22;4194;43.408;24.626;2023-04-06T02:19:47;3.00;99.90
8313;DHT22;4194;43.408;24.626;2023-04-06T02:22:12;4.60;99.90
8313;DHT22;4194;43.408;24.626;2023-04-06T02:24:38;5.10;99.90
8313;DHT22;4194;43.408;24.626;2023-04-06T02:27:04;3.20;99.90
8313;DHT22;4194;43.408;24.626;2023-04-06T02:29:30;4.30;99.90
8313;DHT22;4194;43.408;24.626;2023-04-06T02:31:56;4.10;99.90
8313;DHT22;4194;43.408;24.626;2023-04-06T02:34:21;3.90;99.90
8313;DHT22;4194;43.408;24.626;2023-04-06T02:36:47;5.50;99.90
8313;DHT22;4194;43.408;24.626;2023-04-06T02:39:13;4.80;99.90
8313;DHT22;4194;43.408;24.626;2023-04-06T02:41:39;4.20;99.90
8313;DHT22;4194;43.408;24.626;2023-04-06T02:44:07;3.90;99.90
8313;DHT22;4194;43.408;24.626;2023-04-06T02:46:34;4.60;99.90
8313;DHT22;4194;43.408;24.626;2023-04-06T02:49:00;4.30;99.90
8313;DHT22;4194;43.408;24.626;2023-04-06T02:51:26;4.10;99.90
8313;DHT22;4194;43.408;24.626;2023-04-06T02:53:52;4.20;99.90
8313;DHT22;4194;43.408;24.626;2023-04-06T02:56:18;3.60;99.90
8313;DHT22;4194;43.408;24.626;2023-04-06T02:58:44;4.20;99.90
8313;DHT22;4194;43.408;24.626;2023-04-06T03:01:10;4.20;99.90
8313;DHT22;4194;43.408;24.626;2023-04-06T03:03:35;4.30;99.90
8313;DHT22;4194;43.408;24.626;2023-04-06T03:06:01;3.90;99.90
8313;DHT22;4194;43.408;24.626;2023-04-06T03:08:28;3.90;99.90
8313;DHT22;4194;43.408;24.626;2023-04-06T03:10:54;4.20;99.90
8313;DHT22;4194;43.408;24.626;2023-04-06T03:13:20;5.60;99.90
8313;DHT22;4194;43.408;24.626;2023-04-06T03:15:46;3.50;99.90
8313;DHT22;4194;43.408;24.626;2023-04-06T03:18:12;4.30;99.90
8313;DHT22;4194;43.408;24.626;2023-04-06T03:20:37;4.10;99.90
8313;DHT22;4194;43.408;24.626;2023-04-06T03:23:03;4.10;99.90
8313;DHT22;4194;43.408;24.626;2023-04-06T03:25:29;4.10;99.90
8313;DHT22;4194;43.408;24.626;2023-04-06T03:27:56;4.00;99.90
8313;DHT22;4194;43.408;24.626;2023-04-06T03:30:21;2.80;99.90
8313;DHT22;4194;43.408;24.626;2023-04-06T03:32:47;4.00;99.90
8313;DHT22;4194;43.408;24.626;2023-04-06T03:35:13;4.30;99.90
8313;DHT22;4194;43.408;24.626;2023-04-06T03:37:39;4.30;99.90
8313;DHT22;4194;43.408;24.626;2023-04-06T03:40:05;2.40;99.90
8313;DHT22;4194;43.408;24.626;2023-04-06T03:44:58;3.00;99.90
8313;DHT22;4194;43.408;24.626;2023-04-06T03:47:24;3.90;99.90
8313;DHT22;4194;43.408;24.626;2023-04-06T03:49:50;3.90;99.90
8313;DHT22;4194;43.408;24.626;2023-04-06T03:52:16;4.30;99.90
8313;DHT22;4194;43.408;24.626;2023-04-06T03:54:42;4.00;99.90
8313;DHT22;4194;43.408;24.626;2023-04-06T03:57:07;3.90;99.90
8313;DHT22;4194;43.408;24.626;2023-04-06T03:59:33;4.00;99.90
8313;DHT22;4194;43.408;24.626;2023-04-06T04:01:59;4.00;99.90
8313;DHT22;4194;43.408;24.626;2023-04-06T04:04:25;2.90;99.90
8313;DHT22;4194;43.408;24.626;2023-04-06T04:06:50;4.00;99.90
8313;DHT22;4194;43.408;24.626;2023-04-06T04:09:16;4.00;99.90
8313;DHT22;4194;43.408;24.626;2023-04-06T04:11:42;5.80;99.90
8313;DHT22;4194;43.408;24.626;2023-04-06T04:14:07;2.60;99.90
8313;DHT22;4194;43.408;24.626;2023-04-06T04:16:33;4.40;99.90
8313;DHT22;4194;43.408;24.626;2023-04-06T04:18:59;4.00;99.90
8313;DHT22;4194;43.408;24.626;2023-04-06T04:21:24;4.00;99.90
8313;DHT22;4194;43.408;24.626;2023-04-06T04:23:51;3.90;99.90
8313;DHT22;4194;43.408;24.626;2023-04-06T04:26:18;2.90;99.90
8313;DHT22;4194;43.408;24.626;2023-04-06T04:28:44;4.00;99.90
8313;DHT22;4194;43.408;24.626;2023-04-06T04:31:09;4.00;99.90
8313;DHT22;4194;43.408;24.626;2023-04-06T04:33:35;4.00;99.90
8313;DHT22;4194;43.408;24.626;2023-04-06T04:36:01;5.80;99.90
8313;DHT22;4194;43.408;24.626;2023-04-06T04:38:27;3.80;99.90
8313;DHT22;4194;43.408;24.626;2023-04-06T04:40:53;4.10;99.90
8313;DHT22;4194;43.408;24.626;2023-04-06T04:43:18;4.70;99.90
8313;DHT22;4194;43.408;24.626;2023-04-06T04:45:44;3.70;99.90
8313;DHT22;4194;43.408;24.626;2023-04-06T04:48:10;4.40;99.90
8313;DHT22;4194;43.408;24.626;2023-04-06T04:50:36;4.20;99.90
8313;DHT22;4194;43.408;24.626;2023-04-06T04:55:30;4.50;99.90
8313;DHT22;4194;43.408;24.626;2023-04-06T04:57:56;2.50;99.90
8313;DHT22;4194;43.408;24.626;2023-04-06T05:00:22;4.70;99.90
8313;DHT22;4194;43.408;24.626;2023-04-06T05:02:48;4.20;99.90
8313;DHT22;4194;43.408;24.626;2023-04-06T05:07:40;8.00;99.90
8313;DHT22;4194;43.408;24.626;2023-04-06T05:10:06;4.40;99.90
8313;DHT22;4194;43.408;24.626;2023-04-06T05:14:58;4.40;99.90
8313;DHT22;4194;43.408;24.626;2023-04-06T05:17:23;4.40;99.90
8313;DHT22;4194;43.408;24.626;2023-04-06T05:19:49;5.80;99.90
8313;DHT22;4194;43.408;24.626;2023-04-06T05:22:15;4.20;99.90
8313;DHT22;4194;43.408;24.626;2023-04-06T05:24:43;4.70;99.90
8313;DHT22;4194;43.408;24.626;2023-04-06T05:27:09;5.60;99.90
8313;DHT22;4194;43.408;24.626;2023-04-06T05:29:35;4.70;99.90
8313;DHT22;4194;43.408;24.626;2023-04-06T05:32:01;5.90;99.90
8313;DHT22;4194;43.408;24.626;2023-04-06T05:34:27;5.50;99.90
8313;DHT22;4194;43.408;24.626;2023-04-06T05:36:53;5.10;99.90
8313;DHT22;4194;43.408;24.626;2023-04-06T05:39:18;5.70;99.90
8313;DHT22;4194;43.408;24.626;2023-04-06T05:41:44;5.40;99.90
8313;DHT22;4194;43.408;24.626;2023-04-06T05:44:10;6.20;99.90
8313;DHT22;4194;43.408;24.626;2023-04-06T05:46:36;5.20;99.90
8313;DHT22;4194;43.408;24.626;2023-04-06T05:49:02;6.20;99.60
8313;DHT22;4194;43.408;24.626;2023-04-06T05:51:27;6.30;99.50
8313;DHT22;4194;43.408;24.626;2023-04-06T05:53:53;6.20;98.70
8313;DHT22;4194;43.408;24.626;2023-04-06T05:56:19;5.90;98.20
8313;DHT22;4194;43.408;24.626;2023-04-06T05:58:45;5.10;98.30
8313;DHT22;4194;43.408;24.626;2023-04-06T06:01:11;5.10;96.80
8313;DHT22;4194;43.408;24.626;2023-04-06T06:03:36;5.20;97.10
8313;DHT22;4194;43.408;24.626;2023-04-06T06:06:03;5.30;95.80
8313;DHT22;4194;43.408;24.626;2023-04-06T06:08:29;4.80;95.20
8313;DHT22;4194;43.408;24.626;2023-04-06T06:10:55;5.30;95.60
8313;DHT22;4194;43.408;24.626;2023-04-06T06:13:22;6.30;95.70
8313;DHT22;4194;43.408;24.626;2023-04-06T06:15:48;5.40;94.60
8313;DHT22;4194;43.408;24.626;2023-04-06T06:18:14;6.30;94.60
8313;DHT22;4194;43.408;24.626;2023-04-06T06:20:40;5.60;94.70
8313;DHT22;4194;43.408;24.626;2023-04-06T06:23:05;5.20;93.70
8313;DHT22;4194;43.408;24.626;2023-04-06T06:25:31;5.90;94.10
8313;DHT22;4194;43.408;24.626;2023-04-06T06:27:58;6.20;93.10
8313;DHT22;4194;43.408;24.626;2023-04-06T06:30:23;5.80;92.90
8313;DHT22;4194;43.408;24.626;2023-04-06T06:32:50;5.30;93.10
8313;DHT22;4194;43.408;24.626;2023-04-06T06:35:16;5.80;93.30
8313;DHT22;4194;43.408;24.626;2023-04-06T06:37:46;5.90;93.30
8313;DHT22;4194;43.408;24.626;2023-04-06T06:40:12;5.90;93.20
8313;DHT22;4194;43.408;24.626;2023-04-06T06:42:42;5.70;93.60
8313;DHT22;4194;43.408;24.626;2023-04-06T06:45:08;5.40;92.10
8313;DHT22;4194;43.408;24.626;2023-04-06T06:47:34;6.30;92.20
8313;DHT22;4194;43.408;24.626;2023-04-06T06:50:00;7.10;92.10
8313;DHT22;4194;43.408;24.626;2023-04-06T06:52:26;5.90;91.70
8313;DHT22;4194;43.408;24.626;2023-04-06T06:54:54;5.30;90.80
8313;DHT22;4194;43.408;24.626;2023-04-06T06:57:20;6.60;91.10
8313;DHT22;4194;43.408;24.626;2023-04-06T06:59:46;5.70;91.10
8313;DHT22;4194;43.408;24.626;2023-04-06T07:02:11;5.00;90.10
8313;DHT22;4194;43.408;24.626;2023-04-06T07:04:37;7.10;90.60
8313;DHT22;4194;43.408;24.626;2023-04-06T07:07:03;6.10;90.60
8313;DHT22;4194;43.408;24.626;2023-04-06T07:09:29;7.30;89.60
8313;DHT22;4194;43.408;24.626;2023-04-06T07:11:54;6.60;89.80
8313;DHT22;4194;43.408;24.626;2023-04-06T07:14:21;7.40;88.10
8313;DHT22;4194;43.408;24.626;2023-04-06T07:16:47;6.10;87.70
8313;DHT22;4194;43.408;24.626;2023-04-06T07:19:14;5.20;85.60
8313;DHT22;4194;43.408;24.626;2023-04-06T07:21:40;6.40;87.60
8313;DHT22;4194;43.408;24.626;2023-04-06T07:24:05;6.40;87.20
8313;DHT22;4194;43.408;24.626;2023-04-06T07:26:31;6.70;87.80
8313;DHT22;4194;43.408;24.626;2023-04-06T07:28:57;8.10;86.30
8313;DHT22;4194;43.408;24.626;2023-04-06T07:31:22;7.60;86.90
8313;DHT22;4194;43.408;24.626;2023-04-06T07:33:48;8.80;87.00
8313;DHT22;4194;43.408;24.626;2023-04-06T07:36:15;7.10;86.00
8313;DHT22;4194;43.408;24.626;2023-04-06T07:38:41;8.50;83.20
8313;DHT22;4194;43.408;24.626;2023-04-06T07:41:06;7.60;82.60
8313;DHT22;4194;43.408;24.626;2023-04-06T07:43:32;6.70;82.70
8313;DHT22;4194;43.408;24.626;2023-04-06T07:45:58;7.30;83.30
8313;DHT22;4194;43.408;24.626;2023-04-06T07:48:26;7.40;82.40
8313;DHT22;4194;43.408;24.626;2023-04-06T07:50:51;7.10;81.80
8313;DHT22;4194;43.408;24.626;2023-04-06T07:53:17;7.00;82.40
8313;DHT22;4194;43.408;24.626;2023-04-06T07:55:43;8.30;81.00
8313;DHT22;4194;43.408;24.626;2023-04-06T08:00:34;7.40;80.10
8313;DHT22;4194;43.408;24.626;2023-04-06T08:03:00;7.40;80.40
8313;DHT22;4194;43.408;24.626;2023-04-06T08:05:26;7.00;78.20
8313;DHT22;4194;43.408;24.626;2023-04-06T08:07:52;7.80;79.80
8313;DHT22;4194;43.408;24.626;2023-04-06T08:10:17;9.30;79.00
8313;DHT22;4194;43.408;24.626;2023-04-06T08:12:43;7.60;78.20
8313;DHT22;4194;43.408;24.626;2023-04-06T08:15:09;8.40;77.60
8313;DHT22;4194;43.408;24.626;2023-04-06T08:17:35;9.30;77.80
8313;DHT22;4194;43.408;24.626;2023-04-06T08:20:01;7.30;76.80
8313;DHT22;4194;43.408;24.626;2023-04-06T08:22:28;8.50;77.00
8313;DHT22;4194;43.408;24.626;2023-04-06T08:24:54;8.00;77.50
8313;DHT22;4194;43.408;24.626;2023-04-06T08:27:20;9.10;76.00
8313;DHT22;4194;43.408;24.626;2023-04-06T08:29:46;9.10;75.30
8313;DHT22;4194;43.408;24.626;2023-04-06T08:32:12;8.80;74.00
8313;DHT22;4194;43.408;24.626;2023-04-06T08:34:38;8.60;74.60
8313;DHT22;4194;43.408;24.626;2023-04-06T08:37:04;7.90;74.80
8313;DHT22;4194;43.408;24.626;2023-04-06T08:39:30;8.60;75.20
8313;DHT22;4194;43.408;24.626;2023-04-06T08:41:59;7.60;73.00
8313;DHT22;4194;43.408;24.626;2023-04-06T08:44:29;8.70;73.70
8313;DHT22;4194;43.408;24.626;2023-04-06T08:46:55;9.00;74.20
8313;DHT22;4194;43.408;24.626;2023-04-06T08:49:21;8.90;74.10
8313;DHT22;4194;43.408;24.626;2023-04-06T08:51:47;8.20;74.30
8313;DHT22;4194;43.408;24.626;2023-04-06T08:54:13;8.60;74.00
8313;DHT22;4194;43.408;24.626;2023-04-06T08:56:39;9.50;71.50
8313;DHT22;4194;43.408;24.626;2023-04-06T08:59:06;8.60;70.60
8313;DHT22;4194;43.408;24.626;2023-04-06T09:01:33;9.00;71.90
8313;DHT22;4194;43.408;24.626;2023-04-06T09:04:03;8.70;71.30
8313;DHT22;4194;43.408;24.626;2023-04-06T09:06:34;9.00;71.70
8313;DHT22;4194;43.408;24.626;2023-04-06T09:09:02;9.10;71.80
8313;DHT22;4194;43.408;24.626;2023-04-06T09:11:28;9.00;71.30
8313;DHT22;4194;43.408;24.626;2023-04-06T09:13:55;10.20;70.90
8313;DHT22;4194;43.408;24.626;2023-04-06T09:16:22;9.20;71.30
8313;DHT22;4194;43.408;24.626;2023-04-06T09:18:49;8.00;69.20
8313;DHT22;4194;43.408;24.626;2023-04-06T09:21:17;8.90;69.80
8313;DHT22;4194;43.408;24.626;2023-04-06T09:23:44;8.80;70.70
8313;DHT22;4194;43.408;24.626;2023-04-06T09:26:17;8.90;69.70
8313;DHT22;4194;43.408;24.626;2023-04-06T09:33:38;8.80;69.30
8313;DHT22;4194;43.408;24.626;2023-04-06T09:36:06;9.00;70.90
8313;DHT22;4194;43.408;24.626;2023-04-06T09:38:32;10.00;67.60
8313;DHT22;4194;43.408;24.626;2023-04-06T09:40:57;9.50;69.10
8313;DHT22;4194;43.408;24.626;2023-04-06T09:43:27;9.20;68.80
8313;DHT22;4194;43.408;24.626;2023-04-06T09:45:53;9.30;67.50
8313;DHT22;4194;43.408;24.626;2023-04-06T09:48:20;9.30;67.20
8313;DHT22;4194;43.408;24.626;2023-04-06T09:50:50;8.60;65.80
8313;DHT22;4194;43.408;24.626;2023-04-06T09:53:19;8.70;65.80
8313;DHT22;4194;43.408;24.626;2023-04-06T09:55:49;9.30;67.70
8313;DHT22;4194;43.408;24.626;2023-04-06T09:58:17;9.50;66.80
8313;DHT22;4194;43.408;24.626;2023-04-06T10:01:31;10.00;64.70
8313;DHT22;4194;43.408;24.626;2023-04-06T10:03:56;10.20;63.90
8313;DHT22;4194;43.408;24.626;2023-04-06T10:06:28;9.90;64.90
8313;DHT22;4194;43.408;24.626;2023-04-06T10:08:56;9.60;63.70
8313;DHT22;4194;43.408;24.626;2023-04-06T10:11:23;10.00;63.90
8313;DHT22;4194;43.408;24.626;2023-04-06T10:13:50;11.90;63.70
8313;DHT22;4194;43.408;24.626;2023-04-06T10:16:15;11.70;62.90
8313;DHT22;4194;43.408;24.626;2023-04-06T10:18:46;9.70;62.50
8313;DHT22;4194;43.408;24.626;2023-04-06T10:21:16;9.80;62.50
8313;DHT22;4194;43.408;24.626;2023-04-06T10:23:48;11.40;62.50
8313;DHT22;4194;43.408;24.626;2023-04-06T10:26:16;10.30;62.20
8313;DHT22;4194;43.408;24.626;2023-04-06T10:28:44;11.60;62.30
8313;DHT22;4194;43.408;24.626;2023-04-06T10:31:10;11.60;61.40
8313;DHT22;4194;43.408;24.626;2023-04-06T10:33:36;11.00;61.50
8313;DHT22;4194;43.408;24.626;2023-04-06T10:36:22;11.80;61.20
8313;DHT22;4194;43.408;24.626;2023-04-06T10:38:57;10.90;61.20
8313;DHT22;4194;43.408;24.626;2023-04-06T10:41:41;11.30;60.20
8313;DHT22;4194;43.408;24.626;2023-04-06T10:44:07;11.50;60.00
8313;DHT22;4194;43.408;24.626;2023-04-06T10:46:33;11.80;60.40
8313;DHT22;4194;43.408;24.626;2023-04-06T10:49:12;11.50;61.00
8313;DHT22;4194;43.408;24.626;2023-04-06T10:51:39;11.60;60.60
8313;DHT22;4194;43.408;24.626;2023-04-06T10:54:06;11.60;59.00
8313;DHT22;4194;43.408;24.626;2023-04-06T10:56:33;11.70;59.80
8313;DHT22;4194;43.408;24.626;2023-04-06T10:59:02;12.00;59.60
8313;DHT22;4194;43.408;24.626;2023-04-06T11:01:28;13.40;59.70
8313;DHT22;4194;43.408;24.626;2023-04-06T11:03:55;12.40;57.90
8313;DHT22;4194;43.408;24.626;2023-04-06T11:06:28;11.70;57.20
8313;DHT22;4194;43.408;24.626;2023-04-06T11:08:56;12.50;58.50
8313;DHT22;4194;43.408;24.626;2023-04-06T11:11:25;12.40;57.30
8313;DHT22;4194;43.408;24.626;2023-04-06T11:13:55;12.60;57.60
8313;DHT22;4194;43.408;24.626;2023-04-06T11:16:26;11.70;55.30
8313;DHT22;4194;43.408;24.626;2023-04-06T11:18:54;14.10;56.50
8313;DHT22;4194;43.408;24.626;2023-04-06T11:21:33;14.30;56.50
8313;DHT22;4194;43.408;24.626;2023-04-06T11:24:21;13.70;54.90
8313;DHT22;4194;43.408;24.626;2023-04-06T11:26:55;14.50;55.60
8313;DHT22;4194;43.408;24.626;2023-04-06T11:29:23;13.90;55.20
8313;DHT22;4194;43.408;24.626;2023-04-06T11:31:54;13.50;55.90
8313;DHT22;4194;43.408;24.626;2023-04-06T11:34:24;13.90;56.00
8313;DHT22;4194;43.408;24.626;2023-04-06T11:37:01;13.90;55.00
8313;DHT22;4194;43.408;24.626;2023-04-06T11:39:28;13.10;52.40
8313;DHT22;4194;43.408;24.626;2023-04-06T11:41:59;15.70;53.20
8313;DHT22;4194;43.408;24.626;2023-04-06T11:44:36;13.90;52.50
8313;DHT22;4194;43.408;24.626;2023-04-06T11:47:08;13.80;51.80
8313;DHT22;4194;43.408;24.626;2023-04-06T11:49:37;13.50;52.30
8313;DHT22;4194;43.408;24.626;2023-04-06T11:52:23;14.00;51.60
8313;DHT22;4194;43.408;24.626;2023-04-06T11:54:51;14.70;50.10
8313;DHT22;4194;43.408;24.626;2023-04-06T11:57:18;15.50;50.10
8313;DHT22;4194;43.408;24.626;2023-04-06T11:59:44;15.50;49.20
8313;DHT22;4194;43.408;24.626;2023-04-06T12:02:10;15.60;48.80
8313;DHT22;4194;43.408;24.626;2023-04-06T12:04:36;15.70;48.20
8313;DHT22;4194;43.408;24.626;2023-04-06T12:07:02;15.70;48.60
8313;DHT22;4194;43.408;24.626;2023-04-06T12:09:29;16.00;48.60
8313;DHT22;4194;43.408;24.626;2023-04-06T12:11:54;16.00;48.00
8313;DHT22;4194;43.408;24.626;2023-04-06T12:14:21;15.90;48.10
8313;DHT22;4194;43.408;24.626;2023-04-06T12:16:47;15.60;45.10
8313;DHT22;4194;43.408;24.626;2023-04-06T12:19:13;16.90;45.00
8313;DHT22;4194;43.408;24.626;2023-04-06T12:21:39;17.90;45.10
8313;DHT22;4194;43.408;24.626;2023-04-06T12:24:06;17.70;45.80
8313;DHT22;4194;43.408;24.626;2023-04-06T12:26:32;18.50;44.20
8313;DHT22;4194;43.408;24.626;2023-04-06T12:29:01;17.60;44.00
8313;DHT22;4194;43.408;24.626;2023-04-06T12:31:33;20.20;42.90
8313;DHT22;4194;43.408;24.626;2023-04-06T12:34:00;19.20;42.90
8313;DHT22;4194;43.408;24.626;2023-04-06T12:38:54;20.10;40.60
8313;DHT22;4194;43.408;24.626;2023-04-06T12:41:19;20.30;36.70
8313;DHT22;4194;43.408;24.626;2023-04-06T12:43:46;22.00;37.30
8313;DHT22;4194;43.408;24.626;2023-04-06T12:46:12;22.90;37.30
8313;DHT22;4194;43.408;24.626;2023-04-06T12:48:38;22.50;35.70
8313;DHT22;4194;43.408;24.626;2023-04-06T12:51:05;21.60;35.40
8313;DHT22;4194;43.408;24.626;2023-04-06T12:53:32;22.50;36.70
8313;DHT22;4194;43.408;24.626;2023-04-06T12:55:58;23.30;35.70
8313;DHT22;4194;43.408;24.626;2023-04-06T12:58:25;22.20;35.40
8313;DHT22;4194;43.408;24.626;2023-04-06T13:00:54;19.40;37.20
8313;DHT22;4194;43.408;24.626;2023-04-06T13:03:21;19.40;37.80
8313;DHT22;4194;43.408;24.626;2023-04-06T13:05:49;17.40;39.60
8313;DHT22;4194;43.408;24.626;2023-04-06T13:08:16;17.70;38.70
8313;DHT22;4194;43.408;24.626;2023-04-06T13:10:47;18.20;39.80
8313;DHT22;4194;43.408;24.626;2023-04-06T13:13:17;19.30;39.30
8313;DHT22;4194;43.408;24.626;2023-04-06T13:15:43;18.50;39.70
8313;DHT22;4194;43.408;24.626;2023-04-06T13:18:10;17.60;39.60
8313;DHT22;4194;43.408;24.626;2023-04-06T13:20:36;16.90;40.60
8313;DHT22;4194;43.408;24.626;2023-04-06T13:23:02;16.30;41.00
8313;DHT22;4194;43.408;24.626;2023-04-06T13:25:29;16.00;42.20
8313;DHT22;4194;43.408;24.626;2023-04-06T13:27:55;16.00;42.90
8313;DHT22;4194;43.408;24.626;2023-04-06T13:30:21;15.90;42.00
8313;DHT22;4194;43.408;24.626;2023-04-06T13:32:47;15.60;42.20
8313;DHT22;4194;43.408;24.626;2023-04-06T13:35:13;16.30;41.80
8313;DHT22;4194;43.408;24.626;2023-04-06T13:37:39;15.10;40.50
8313;DHT22;4194;43.408;24.626;2023-04-06T13:40:05;15.50;41.70
8313;DHT22;4194;43.408;24.626;2023-04-06T13:42:32;14.80;43.00
8313;DHT22;4194;43.408;24.626;2023-04-06T13:44:58;14.80;43.30
8313;DHT22;4194;43.408;24.626;2023-04-06T13:47:24;14.70;43.90
8313;DHT22;4194;43.408;24.626;2023-04-06T13:49:50;14.60;44.20
8313;DHT22;4194;43.408;24.626;2023-04-06T13:52:19;14.30;45.70
8313;DHT22;4194;43.408;24.626;2023-04-06T13:54:45;13.90;46.50
8313;DHT22;4194;43.408;24.626;2023-04-06T13:57:11;13.20;45.80
8313;DHT22;4194;43.408;24.626;2023-04-06T13:59:38;13.30;45.30
8313;DHT22;4194;43.408;24.626;2023-04-06T14:02:07;14.40;46.50
8313;DHT22;4194;43.408;24.626;2023-04-06T14:04:33;13.70;46.60
8313;DHT22;4194;43.408;24.626;2023-04-06T14:07:00;14.20;45.70
8313;DHT22;4194;43.408;24.626;2023-04-06T14:09:26;13.70;46.10
8313;DHT22;4194;43.408;24.626;2023-04-06T14:11:52;13.50;47.00
8313;DHT22;4194;43.408;24.626;2023-04-06T14:14:19;13.40;47.70
8313;DHT22;4194;43.408;24.626;2023-04-06T14:16:45;12.40;47.50
8313;DHT22;4194;43.408;24.626;2023-04-06T14:19:12;12.20;48.10
8313;DHT22;4194;43.408;24.626;2023-04-06T14:21:41;12.20;48.50
8313;DHT22;4194;43.408;24.626;2023-04-06T14:24:08;11.80;48.80
8313;DHT22;4194;43.408;24.626;2023-04-06T14:26:35;11.10;48.90
8313;DHT22;4194;43.408;24.626;2023-04-06T14:29:01;12.00;50.60
8313;DHT22;4194;43.408;24.626;2023-04-06T14:31:27;11.60;51.00
8313;DHT22;4194;43.408;24.626;2023-04-06T14:33:53;11.30;51.30
8313;DHT22;4194;43.408;24.626;2023-04-06T14:36:20;11.30;52.00
8313;DHT22;4194;43.408;24.626;2023-04-06T14:38:45;11.60;51.20
8313;DHT22;4194;43.408;24.626;2023-04-06T14:41:21;12.10;50.80
8313;DHT22;4194;43.408;24.626;2023-04-06T14:43:48;11.10;50.80
8313;DHT22;4194;43.408;24.626;2023-04-06T14:46:14;10.40;50.80
8313;DHT22;4194;43.408;24.626;2023-04-06T14:48:41;10.40;51.50
8313;DHT22;4194;43.408;24.626;2023-04-06T14:51:07;10.50;52.10
8313;DHT22;4194;43.408;24.626;2023-04-06T14:53:33;11.40;53.00
8313;DHT22;4194;43.408;24.626;2023-04-06T14:55:58;10.10;51.80
8313;DHT22;4194;43.408;24.626;2023-04-06T14:58:25;10.60;52.80
8313;DHT22;4194;43.408;24.626;2023-04-06T15:01:01;11.20;53.10
8313;DHT22;4194;43.408;24.626;2023-04-06T15:03:27;10.50;53.10
8313;DHT22;4194;43.408;24.626;2023-04-06T15:05:55;9.90;53.30
8313;DHT22;4194;43.408;24.626;2023-04-06T15:08:22;9.90;53.70
8313;DHT22;4194;43.408;24.626;2023-04-06T15:10:48;11.30;54.00
8313;DHT22;4194;43.408;24.626;2023-04-06T15:13:14;9.70;54.10
8313;DHT22;4194;43.408;24.626;2023-04-06T15:15:41;11.20;54.60
8313;DHT22;4194;43.408;24.626;2023-04-06T15:18:07;9.50;54.50
8313;DHT22;4194;43.408;24.626;2023-04-06T15:20:33;10.00;54.60
8313;DHT22;4194;43.408;24.626;2023-04-06T15:23:00;9.80;54.50
8313;DHT22;4194;43.408;24.626;2023-04-06T15:25:26;11.20;55.40
8313;DHT22;4194;43.408;24.626;2023-04-06T15:27:51;9.70;55.30
8313;DHT22;4194;43.408;24.626;2023-04-06T15:30:17;9.90;56.60
8313;DHT22;4194;43.408;24.626;2023-04-06T15:32:53;9.60;56.80
8313;DHT22;4194;43.408;24.626;2023-04-06T15:35:20;8.80;55.80
8313;DHT22;4194;43.408;24.626;2023-04-06T15:37:45;10.30;56.10
8313;DHT22;4194;43.408;24.626;2023-04-06T15:40:11;9.80;56.60
8313;DHT22;4194;43.408;24.626;2023-04-06T15:42:39;10.20;56.70
8313;DHT22;4194;43.408;24.626;2023-04-06T15:45:07;7.60;55.60
8313;DHT22;4194;43.408;24.626;2023-04-06T15:47:33;10.00;57.10
8313;DHT22;4194;43.408;24.626;2023-04-06T15:49:59;7.90;56.20
8313;DHT22;4194;43.408;24.626;2023-04-06T15:52:24;9.10;57.70
8313;DHT22;4194;43.408;24.626;2023-04-06T15:54:50;9.40;58.70
8313;DHT22;4194;43.408;24.626;2023-04-06T15:57:16;10.20;57.90
8313;DHT22;4194;43.408;24.626;2023-04-06T15:59:42;9.10;58.10
8313;DHT22;4194;43.408;24.626;2023-04-06T16:02:07;8.80;57.60
8313;DHT22;4194;43.408;24.626;2023-04-06T16:04:34;8.90;58.50
8313;DHT22;4194;43.408;24.626;2023-04-06T16:09:26;8.90;58.30
8313;DHT22;4194;43.408;24.626;2023-04-06T16:11:52;9.00;58.80
8313;DHT22;4194;43.408;24.626;2023-04-06T16:16:43;8.80;58.70
8313;DHT22;4194;43.408;24.626;2023-04-06T16:19:09;8.60;59.20
8313;DHT22;4194;43.408;24.626;2023-04-06T16:21:35;8.70;58.80
8313;DHT22;4194;43.408;24.626;2023-04-06T16:26:26;9.50;59.50